Time;durP1;ratioP1;P1;durP2;ratioP2;P2;SDS_P1;SDS_P2;PMS_P1;PMS_P2;Temp;Humidity;BMP_temperature;BMP_pressure;BME280_temperature;BME280_humidity;BME280_pressure;Samples;Min_cycle;Max_cycle;Signal;HPM_P1;HPM_P2
2023/10/17 00:01:33;;;;;;;9.00;8.40;;;7.10;99.90;;;;;;5026324;28;20044;-88
2023/10/17 00:06:37;;;;;;;9.65;9.05;;;6.80;99.90;;;;;;5031392;28;20506;-89
2023/10/17 00:09:07;;;;;;;9.40;8.80;;;6.60;99.90;;;;;;5016220;28;20044;-89
2023/10/17 00:11:40;;;;;;;9.02;8.43;;;6.90;99.90;;;;;;5034392;28;20048;-89
2023/10/17 00:14:11;;;;;;;8.90;8.30;;;6.60;99.90;;;;;;5051844;28;20047;-89
2023/10/17 00:16:37;;;;;;;8.85;8.25;;;6.90;99.90;;;;;;5022752;28;20037;-89
2023/10/17 00:19:05;;;;;;;8.73;8.13;;;6.60;99.90;;;;;;5037815;28;20041;-89
2023/10/17 00:21:33;;;;;;;9.15;8.55;;;6.60;99.90;;;;;;5019019;28;20500;-89
2023/10/17 00:24:08;;;;;;;8.75;8.15;;;6.60;99.90;;;;;;5043081;28;20067;-90
2023/10/17 00:26:42;;;;;;;8.50;7.90;;;6.60;99.90;;;;;;5060796;28;20101;-89
2023/10/17 00:29:08;;;;;;;8.75;8.15;;;6.60;99.90;;;;;;5043327;28;20391;-89
2023/10/17 00:31:37;;;;;;;8.98;8.38;;;6.70;99.90;;;;;;5037956;28;20040;-89
2023/10/17 00:34:13;;;;;;;8.23;7.72;;;6.80;99.90;;;;;;5024586;28;20051;-90
2023/10/17 00:36:48;;;;;;;8.27;7.75;;;6.50;99.90;;;;;;5056390;28;20056;-90
2023/10/17 00:39:32;;;;;;;8.18;7.63;;;7.00;99.90;;;;;;5037652;28;20413;-90
2023/10/17 00:44:33;;;;;;;7.47;6.97;;;6.90;99.90;;;;;;5038107;28;19943;-89
2023/10/17 00:47:00;;;;;;;7.70;7.20;;;6.70;99.90;;;;;;5026548;28;20041;-89
2023/10/17 00:49:29;;;;;;;7.63;7.13;;;6.60;99.90;;;;;;5026500;28;20526;-89
2023/10/17 00:51:58;;;;;;;7.70;7.20;;;6.50;99.90;;;;;;5018525;28;20041;-89
2023/10/17 00:54:25;;;;;;;8.80;8.20;;;6.40;99.90;;;;;;5036892;28;20044;-90
2023/10/17 00:56:56;;;;;;;7.97;7.47;;;6.80;99.90;;;;;;5037996;28;20056;-91
2023/10/17 00:59:29;;;;;;;7.90;7.40;;;6.70;99.90;;;;;;5052663;28;20585;-91
2023/10/17 01:01:56;;;;;;;8.67;8.07;;;6.50;99.90;;;;;;5028007;28;20163;-90
2023/10/17 01:04:23;;;;;;;8.32;7.82;;;6.50;99.90;;;;;;5029720;28;20071;-89
2023/10/17 01:06:55;;;;;;;7.90;7.40;;;6.90;99.90;;;;;;5022816;28;20415;-90
2023/10/17 01:09:25;;;;;;;8.30;7.70;;;6.50;99.90;;;;;;5027029;28;20075;-89
2023/10/17 01:11:54;;;;;;;8.18;7.68;;;6.80;99.90;;;;;;5039494;28;20041;-89
2023/10/17 01:14:20;;;;;;;8.15;7.60;;;6.50;99.90;;;;;;5023162;28;20848;-90
2023/10/17 01:16:46;;;;;;;7.32;6.82;;;6.40;99.90;;;;;;5023848;28;20037;-89
2023/10/17 01:19:15;;;;;;;7.70;7.20;;;6.50;99.90;;;;;;5039804;28;20076;-90
2023/10/17 01:21:41;;;;;;;7.68;7.18;;;6.50;99.90;;;;;;5041128;28;20072;-89
2023/10/17 01:24:08;;;;;;;7.65;7.15;;;6.60;99.90;;;;;;5024682;28;20041;-88
2023/10/17 01:26:37;;;;;;;8.40;7.80;;;6.70;99.90;;;;;;5037733;28;20041;-89
2023/10/17 01:29:04;;;;;;;8.65;8.05;;;6.90;99.90;;;;;;5020636;28;20045;-89
2023/10/17 01:31:33;;;;;;;8.20;7.65;;;6.40;99.90;;;;;;5038040;28;20665;-89
2023/10/17 01:34:02;;;;;;;8.45;7.85;;;6.50;99.90;;;;;;5035756;28;20139;-89
2023/10/17 01:36:28;;;;;;;8.27;7.68;;;6.70;99.90;;;;;;5022107;28;20055;-88
2023/10/17 01:38:54;;;;;;;8.10;7.55;;;6.80;99.90;;;;;;5027605;28;20041;-89
2023/10/17 01:41:21;;;;;;;8.85;8.25;;;6.50;99.90;;;;;;5020281;28;20130;-89
2023/10/17 01:43:48;;;;;;;8.70;8.10;;;7.00;99.90;;;;;;5054902;28;20199;-88
2023/10/17 01:46:15;;;;;;;8.85;8.25;;;7.10;99.90;;;;;;5041436;28;20489;-88
2023/10/17 01:48:47;;;;;;;8.93;8.32;;;6.60;99.90;;;;;;5041922;28;20072;-89
2023/10/17 01:51:16;;;;;;;8.93;8.32;;;6.90;99.90;;;;;;5040235;28;20409;-89
2023/10/17 01:53:45;;;;;;;8.57;7.97;;;6.40;99.90;;;;;;5033058;28;20037;-89
2023/10/17 01:56:13;;;;;;;8.35;7.75;;;6.70;99.90;;;;;;5040193;28;20102;-88
2023/10/17 01:58:49;;;;;;;8.57;7.97;;;7.00;99.90;;;;;;5026756;28;20098;-88
2023/10/17 02:01:16;;;;;;;8.43;7.82;;;7.00;99.90;;;;;;5034997;28;20617;-88
2023/10/17 02:03:43;;;;;;;8.52;7.93;;;6.70;99.90;;;;;;5017569;28;20049;-88
2023/10/17 02:06:14;;;;;;;8.45;7.85;;;7.10;99.90;;;;;;5040301;28;20706;-89
2023/10/17 02:08:46;;;;;;;8.35;7.75;;;7.00;99.90;;;;;;5039881;28;20036;-89
2023/10/17 02:11:25;;;;;;;8.63;8.02;;;7.10;99.90;;;;;;5036083;28;20038;-89
2023/10/17 02:13:59;;;;;;;8.05;7.47;;;7.10;99.90;;;;;;5049486;28;20040;-88
2023/10/17 02:16:28;;;;;;;8.90;8.30;;;7.20;99.90;;;;;;5067627;28;20049;-89
2023/10/17 02:18:55;;;;;;;8.75;8.15;;;7.10;99.90;;;;;;5031857;28;20063;-91
2023/10/17 02:21:21;;;;;;;8.73;8.13;;;7.10;99.90;;;;;;5026226;28;20044;-90
2023/10/17 02:23:50;;;;;;;8.32;7.75;;;7.00;99.90;;;;;;5021064;28;20099;-91
2023/10/17 02:26:22;;;;;;;8.73;8.13;;;6.80;99.90;;;;;;5036304;28;20041;-89
2023/10/17 02:29:05;;;;;;;8.77;8.18;;;7.10;99.90;;;;;;5036294;28;20056;-88
2023/10/17 02:31:32;;;;;;;8.55;7.95;;;6.80;99.90;;;;;;5035489;28;20049;-89
2023/10/17 02:33:58;;;;;;;8.75;8.15;;;6.70;99.90;;;;;;5020764;28;20580;-88
2023/10/17 02:36:24;;;;;;;9.23;8.63;;;6.70;99.90;;;;;;5039182;28;20045;-90
2023/10/17 02:38:50;;;;;;;9.25;8.65;;;7.10;99.90;;;;;;5024354;28;20652;-88
2023/10/17 02:41:19;;;;;;;9.23;8.63;;;7.00;99.90;;;;;;5018074;28;20513;-89
2023/10/17 02:43:52;;;;;;;9.98;9.27;;;6.70;99.90;;;;;;5018925;28;20041;-88
2023/10/17 02:46:18;;;;;;;9.38;8.77;;;6.80;99.90;;;;;;5040364;28;20052;-88
2023/10/17 02:48:47;;;;;;;8.45;7.85;;;6.90;99.90;;;;;;5041123;28;20040;-89
2023/10/17 02:53:52;;;;;;;9.13;8.52;;;6.50;99.90;;;;;;5069882;28;20040;-89
2023/10/17 02:56:21;;;;;;;8.75;8.15;;;6.90;99.90;;;;;;5053026;28;20052;-90
2023/10/17 02:59:04;;;;;;;9.23;8.63;;;6.40;99.90;;;;;;5038395;28;20397;-89
2023/10/17 03:01:31;;;;;;;8.60;8.00;;;6.60;99.90;;;;;;5039181;28;20052;-89
2023/10/17 03:03:59;;;;;;;8.95;8.35;;;6.40;99.90;;;;;;5038681;28;20045;-89
2023/10/17 03:06:24;;;;;;;9.30;8.70;;;6.10;99.90;;;;;;5052777;28;20202;-87
2023/10/17 03:09:00;;;;;;;8.77;8.18;;;6.60;99.90;;;;;;5048246;28;20132;-89
2023/10/17 03:11:47;;;;;;;8.32;7.72;;;6.10;99.90;;;;;;5022618;28;20186;-89
2023/10/17 03:14:19;;;;;;;7.68;7.18;;;6.20;99.90;;;;;;5036649;28;20126;-88
2023/10/17 03:16:52;;;;;;;7.35;6.85;;;6.10;99.90;;;;;;5038199;28;20066;-89
2023/10/17 03:19:27;;;;;;;7.82;7.32;;;6.40;99.90;;;;;;5068466;28;20036;-88
2023/10/17 03:22:16;;;;;;;7.50;7.00;;;6.50;99.90;;;;;;5016834;28;20143;-89
2023/10/17 03:24:42;;;;;;;7.82;7.32;;;6.50;99.90;;;;;;5036407;28;20049;-88
2023/10/17 03:27:11;;;;;;;7.97;7.47;;;6.40;99.90;;;;;;5034802;28;20056;-88
2023/10/17 03:29:41;;;;;;;8.40;7.80;;;6.20;99.90;;;;;;5045928;28;20037;-88
2023/10/17 03:32:12;;;;;;;8.15;7.65;;;6.10;99.90;;;;;;5034901;28;20485;-88
2023/10/17 03:34:45;;;;;;;8.32;7.80;;;5.90;99.90;;;;;;5037038;28;20490;-88
2023/10/17 03:40:01;;;;;;;9.23;8.63;;;6.10;99.90;;;;;;5030516;28;20056;-88
2023/10/17 03:45:12;;;;;;;8.90;8.30;;;5.80;99.90;;;;;;5065324;28;20057;-88
2023/10/17 03:47:47;;;;;;;9.43;8.82;;;6.20;99.90;;;;;;5065553;28;20040;-88
2023/10/17 03:50:31;;;;;;;9.55;8.95;;;6.10;99.90;;;;;;5062219;28;20107;-88
2023/10/17 03:53:04;;;;;;;9.30;8.70;;;6.00;99.90;;;;;;5037379;28;20056;-88
2023/10/17 03:55:30;;;;;;;9.32;8.73;;;6.00;99.90;;;;;;5031714;28;20671;-89
2023/10/17 03:57:56;;;;;;;8.57;7.97;;;6.10;99.90;;;;;;5018962;28;20776;-89
2023/10/17 04:00:40;;;;;;;9.15;8.55;;;5.80;99.90;;;;;;5039715;28;20045;-89
2023/10/17 04:03:08;;;;;;;9.13;8.52;;;5.90;99.90;;;;;;5033042;28;20045;-88
2023/10/17 04:05:34;;;;;;;9.75;9.15;;;5.90;99.90;;;;;;5040446;28;21530;-89
2023/10/17 04:08:00;;;;;;;9.45;8.85;;;6.30;99.90;;;;;;5036578;28;20041;-90
2023/10/17 04:10:36;;;;;;;9.38;8.77;;;6.00;99.90;;;;;;5023776;28;20040;-90
2023/10/17 04:13:21;;;;;;;9.90;9.30;;;5.80;99.90;;;;;;5034907;28;20104;-88
2023/10/17 04:15:47;;;;;;;9.25;8.65;;;6.20;99.90;;;;;;5022571;28;20048;-89
2023/10/17 04:18:14;;;;;;;9.82;9.23;;;6.20;99.90;;;;;;5024562;28;20060;-88
2023/10/17 04:20:43;;;;;;;10.00;9.40;;;6.20;99.90;;;;;;5019747;28;20045;-89
2023/10/17 04:23:21;;;;;;;10.02;9.43;;;6.20;99.90;;;;;;5037783;28;20080;-88
2023/10/17 04:25:54;;;;;;;10.27;9.65;;;6.10;99.90;;;;;;5033351;28;20498;-88
2023/10/17 04:28:20;;;;;;;;;;;6.10;99.90;;;;;;5040539;28;20139;-88
2023/10/17 04:30:50;;;;;;;9.35;8.75;;;6.10;99.90;;;;;;5062291;28;19932;-88
2023/10/17 04:33:19;;;;;;;9.52;8.93;;;5.50;99.90;;;;;;5018426;28;20584;-87
2023/10/17 04:35:53;;;;;;;8.90;8.32;;;5.60;99.90;;;;;;5034303;28;20114;-88
2023/10/17 04:38:19;;;;;;;9.65;9.05;;;5.90;99.90;;;;;;5038144;28;20178;-88
2023/10/17 04:43:48;;;;;;;9.02;8.43;;;5.30;99.90;;;;;;5025375;28;20107;-88
2023/10/17 04:46:16;;;;;;;10.55;9.90;;;5.30;99.90;;;;;;5029924;28;20072;-88
2023/10/17 04:48:46;;;;;;;9.27;8.68;;;5.40;99.90;;;;;;5068547;28;20055;-88
2023/10/17 04:53:50;;;;;;;9.10;8.50;;;5.80;99.90;;;;;;5030494;28;20160;-87
2023/10/17 04:56:24;;;;;;;9.20;8.60;;;5.90;99.90;;;;;;5067778;28;20119;-88
2023/10/17 04:58:56;;;;;;;9.00;8.40;;;5.60;99.90;;;;;;5032323;28;20533;-87
2023/10/17 05:01:35;;;;;;;9.52;8.93;;;5.60;99.90;;;;;;5035354;28;20041;-88
2023/10/17 05:04:31;;;;;;;9.35;8.75;;;5.40;99.90;;;;;;5032161;28;20713;-86
2023/10/17 06:17:49;;;;;;;10.30;9.63;;;5.50;99.90;;;;;;5028248;28;20048;-85
2023/10/17 06:20:59;;;;;;;10.60;9.90;;;4.90;99.90;;;;;;5058848;28;20106;-86
2023/10/17 06:24:05;;;;;;;10.43;9.73;;;4.90;99.90;;;;;;5029272;28;20083;-85
2023/10/17 06:34:22;;;;;;;9.73;9.13;;;5.30;99.90;;;;;;5033301;28;20533;-86
2023/10/17 06:37:01;;;;;;;8.95;8.35;;;5.50;99.90;;;;;;5031542;28;20061;-87
2023/10/17 06:39:46;;;;;;;8.40;7.85;;;5.50;99.90;;;;;;5027852;28;20079;-86
2023/10/17 06:42:15;;;;;;;9.05;8.45;;;5.70;99.90;;;;;;5029654;28;20079;-87
2023/10/17 06:44:53;;;;;;;9.65;9.05;;;5.30;99.90;;;;;;5036222;28;20693;-86
2023/10/17 06:47:31;;;;;;;9.48;8.88;;;5.60;99.90;;;;;;5032039;28;20045;-85
2023/10/17 06:55:21;;;;;;;11.18;10.48;;;6.10;99.90;;;;;;5039462;28;20051;-90
2023/10/17 06:57:50;;;;;;;10.40;9.77;;;5.80;99.90;;;;;;5033518;28;20044;-87
2023/10/17 07:00:42;;;;;;;9.35;8.75;;;6.20;99.90;;;;;;5033979;28;20064;-87
2023/10/17 07:03:09;;;;;;;10.90;10.20;;;6.10;99.90;;;;;;5039161;28;20137;-86
2023/10/17 07:05:36;;;;;;;9.43;8.82;;;6.60;99.90;;;;;;5032858;28;20084;-86
2023/10/17 07:08:02;;;;;;;8.75;8.20;;;6.60;99.90;;;;;;5032719;28;20052;-87
2023/10/17 07:13:32;;;;;;;8.02;7.53;;;6.80;99.90;;;;;;5033860;28;20045;-89
2023/10/17 07:16:04;;;;;;;7.93;7.43;;;7.40;99.90;;;;;;5014953;28;20072;-85
2023/10/17 07:23:45;;;;;;;7.57;7.07;;;7.20;99.90;;;;;;5039092;28;20056;-86
2023/10/17 07:28:42;;;;;;;7.32;6.82;;;7.80;99.90;;;;;;5035431;28;20047;-88
2023/10/17 07:31:11;;;;;;;7.78;7.28;;;7.90;99.90;;;;;;5020470;28;20521;-86
2023/10/17 07:33:43;;;;;;;6.18;5.78;;;7.70;99.90;;;;;;5034045;28;20636;-85
2023/10/17 07:36:15;;;;;;;6.68;6.22;;;8.10;99.90;;;;;;5038798;28;20064;-86
2023/10/17 07:38:43;;;;;;;6.18;5.78;;;8.00;99.90;;;;;;5040257;28;20061;-86
2023/10/17 07:41:13;;;;;;;5.70;5.30;;;8.20;99.90;;;;;;5024516;28;20044;-87
2023/10/17 07:43:44;;;;;;;6.32;5.93;;;8.40;99.90;;;;;;5029719;28;20041;-87
2023/10/17 07:46:18;;;;;;;8.07;7.57;;;8.30;99.90;;;;;;5033207;28;20126;-88
2023/10/17 07:48:48;;;;;;;6.22;5.82;;;8.50;99.90;;;;;;5028986;28;20037;-83
2023/10/17 07:51:17;;;;;;;5.65;5.25;;;8.60;99.90;;;;;;5027755;28;20509;-88
2023/10/17 07:53:47;;;;;;;5.75;5.35;;;8.90;99.90;;;;;;5017444;28;20047;-87
2023/10/17 07:56:20;;;;;;;4.97;4.68;;;8.80;99.90;;;;;;5035244;28;20044;-86
2023/10/17 07:58:56;;;;;;;5.60;5.22;;;8.90;99.90;;;;;;5012265;28;20056;-85
2023/10/17 08:01:31;;;;;;;5.15;4.82;;;8.90;99.90;;;;;;5011811;28;20041;-86
2023/10/17 08:04:12;;;;;;;5.95;5.55;;;9.10;99.90;;;;;;5029725;28;20075;-87
2023/10/17 08:06:38;;;;;;;4.28;3.97;;;9.20;99.90;;;;;;5017836;28;20116;-90
2023/10/17 08:09:16;;;;;;;4.93;4.63;;;9.30;99.90;;;;;;5023157;28;20041;-89
2023/10/17 08:11:42;;;;;;;4.63;4.32;;;9.60;99.90;;;;;;5017265;28;20399;-89
2023/10/17 08:14:11;;;;;;;4.43;4.13;;;9.80;99.90;;;;;;5014023;28;20045;-85
2023/10/17 08:16:40;;;;;;;5.45;5.10;;;10.00;99.90;;;;;;5034781;28;20380;-89
2023/10/17 08:19:23;;;;;;;4.32;4.05;;;10.00;99.90;;;;;;5021832;28;20045;-89
2023/10/17 08:24:33;;;;;;;3.88;3.65;;;10.60;99.90;;;;;;5031499;28;20099;-88
2023/10/17 08:29:45;;;;;;;6.07;5.70;;;10.70;99.90;;;;;;5036026;28;20509;-87
2023/10/17 08:34:56;;;;;;;6.22;5.85;;;10.90;99.90;;;;;;5061469;28;21266;-86
2023/10/17 08:37:40;;;;;;;8.55;8.07;;;11.20;99.90;;;;;;5033541;28;20041;-84
2023/10/17 08:42:51;;;;;;;8.55;8.05;;;11.30;99.90;;;;;;5062379;28;20068;-85
2023/10/17 08:45:18;;;;;;;10.27;9.73;;;11.50;99.90;;;;;;5045074;28;20057;-84
2023/10/17 08:47:44;;;;;;;11.13;10.52;;;11.50;99.90;;;;;;5037402;28;20052;-86
2023/10/17 08:50:10;;;;;;;7.82;7.38;;;11.60;99.90;;;;;;5019235;28;20052;-85
2023/10/17 08:52:37;;;;;;;10.45;9.88;;;11.80;99.90;;;;;;5031853;28;20048;-86
2023/10/17 08:55:03;;;;;;;8.40;7.95;;;11.40;99.90;;;;;;5031352;28;20091;-83
2023/10/17 08:57:31;;;;;;;8.77;8.27;;;11.80;99.90;;;;;;5031532;28;20127;-82
2023/10/17 09:00:23;;;;;;;10.70;10.10;;;11.90;99.90;;;;;;5050902;28;20157;-84
2023/10/17 09:02:55;;;;;;;11.45;10.85;;;11.90;99.90;;;;;;5030060;28;20076;-86
2023/10/17 09:05:27;;;;;;;11.10;10.50;;;11.90;99.90;;;;;;5036174;28;20041;-83
2023/10/17 09:07:58;;;;;;;9.93;9.38;;;11.90;99.90;;;;;;5030004;28;20123;-85
2023/10/17 09:10:39;;;;;;;8.98;8.45;;;12.00;99.90;;;;;;5030772;28;20040;-85
2023/10/17 09:15:48;;;;;;;9.82;9.27;;;12.10;99.90;;;;;;5029355;28;20128;-83
2023/10/17 09:18:14;;;;;;;8.85;8.35;;;12.00;99.90;;;;;;5030553;28;20059;-84
2023/10/17 09:20:41;;;;;;;7.85;7.40;;;12.20;99.90;;;;;;5062518;28;20051;-83
2023/10/17 09:23:27;;;;;;;10.40;9.80;;;12.40;99.90;;;;;;5031983;28;20728;-83
2023/10/17 09:25:54;;;;;;;10.85;10.20;;;12.40;99.90;;;;;;5046822;28;20033;-84
2023/10/17 09:28:22;;;;;;;8.77;8.23;;;12.00;99.90;;;;;;5031727;28;20043;-85
2023/10/17 09:30:58;;;;;;;10.52;9.93;;;11.90;99.90;;;;;;5012621;28;20049;-83
2023/10/17 09:33:31;;;;;;;9.32;8.75;;;11.80;99.90;;;;;;5028360;28;20049;-83
2023/10/17 09:35:59;;;;;;;8.68;8.13;;;11.80;99.90;;;;;;5028761;28;20131;-84
2023/10/17 09:38:28;;;;;;;7.65;7.18;;;11.90;99.90;;;;;;5032557;28;20049;-83
2023/10/17 09:41:01;;;;;;;8.00;7.50;;;11.90;99.90;;;;;;5013400;28;20600;-84
2023/10/17 09:43:27;;;;;;;6.18;5.82;;;11.90;99.90;;;;;;5033538;28;20041;-83
2023/10/17 09:45:55;;;;;;;7.65;7.15;;;12.20;99.90;;;;;;5053486;28;20037;-83
2023/10/17 09:48:32;;;;;;;6.13;5.72;;;12.00;99.90;;;;;;5023441;28;20049;-84
2023/10/17 09:51:01;;;;;;;5.80;5.43;;;12.20;99.90;;;;;;5034276;28;20048;-83
2023/10/17 09:53:31;;;;;;;6.05;5.65;;;12.30;99.90;;;;;;5051398;28;20051;-85
2023/10/17 09:56:00;;;;;;;5.38;5.03;;;12.40;99.90;;;;;;5029725;28;20052;-85
2023/10/17 09:58:38;;;;;;;4.75;4.45;;;12.40;99.90;;;;;;5017720;28;20052;-84
2023/10/17 10:01:20;;;;;;;4.85;4.55;;;12.50;99.90;;;;;;5028989;28;20041;-88
2023/10/17 10:03:56;;;;;;;6.82;6.40;;;12.70;99.90;;;;;;5017188;28;20043;-83
2023/10/17 10:06:23;;;;;;;5.72;5.35;;;12.30;99.90;;;;;;5029967;28;20522;-86
2023/10/17 10:08:56;;;;;;;4.93;4.63;;;12.40;99.90;;;;;;5027938;28;20056;-86
2023/10/17 10:11:51;;;;;;;5.18;4.85;;;12.20;99.90;;;;;;5028435;28;20045;-85
2023/10/17 10:14:23;;;;;;;5.15;4.82;;;12.40;99.90;;;;;;5004002;28;20064;-84
2023/10/17 10:16:57;;;;;;;4.18;3.90;;;12.20;99.90;;;;;;5035312;28;20539;-84
2023/10/17 10:19:27;;;;;;;4.68;4.38;;;12.50;99.90;;;;;;5065759;28;20512;-84
2023/10/17 10:21:58;;;;;;;3.97;3.72;;;12.40;99.90;;;;;;5031989;28;20091;-85
2023/10/17 10:24:29;;;;;;;4.50;4.20;;;12.50;99.90;;;;;;5065986;28;20053;-83
2023/10/17 10:27:19;;;;;;;4.10;3.85;;;12.60;99.90;;;;;;5028360;28;20076;-83
2023/10/17 10:29:49;;;;;;;4.28;3.97;;;12.40;99.90;;;;;;5053724;28;20451;-83
2023/10/17 10:32:33;;;;;;;4.30;4.03;;;12.40;99.90;;;;;;5021257;28;20051;-83
2023/10/17 10:34:59;;;;;;;4.30;4.00;;;12.50;99.90;;;;;;5031556;28;20144;-85
2023/10/17 10:37:29;;;;;;;4.32;4.05;;;12.60;99.90;;;;;;5012361;28;20044;-86
2023/10/17 10:40:16;;;;;;;3.85;3.63;;;12.60;99.90;;;;;;5028696;28;20123;-85
2023/10/17 10:42:54;;;;;;;4.20;3.92;;;12.50;99.90;;;;;;5043259;28;20044;-85
2023/10/17 10:45:31;;;;;;;3.85;3.63;;;12.70;99.90;;;;;;5028485;28;20049;-83
2023/10/17 10:47:58;;;;;;;3.65;3.42;;;12.80;99.90;;;;;;5012101;28;20036;-84
2023/10/17 10:50:29;;;;;;;3.97;3.75;;;12.90;99.90;;;;;;5030896;28;20041;-83
2023/10/17 10:53:00;;;;;;;5.65;5.28;;;13.10;99.90;;;;;;5028270;28;20114;-83
2023/10/17 10:55:27;;;;;;;4.97;4.68;;;13.00;99.90;;;;;;5030743;28;20069;-90
2023/10/17 10:57:53;;;;;;;6.88;6.47;;;12.90;99.90;;;;;;5018004;28;20037;-86
2023/10/17 11:00:19;;;;;;;6.13;5.75;;;12.70;99.90;;;;;;5034443;28;20041;-84
2023/10/17 11:02:46;;;;;;;6.93;6.53;;;12.90;99.90;;;;;;5028264;28;20425;-85
2023/10/17 11:05:13;;;;;;;6.22;5.85;;;12.70;99.90;;;;;;5027978;28;20600;-88
2023/10/17 11:07:39;;;;;;;5.75;5.40;;;13.00;99.90;;;;;;5013487;28;20129;-85
2023/10/17 11:10:06;;;;;;;6.38;6.00;;;13.10;99.90;;;;;;5028515;28;20064;-82
2023/10/17 11:12:35;;;;;;;6.93;6.50;;;13.10;99.90;;;;;;5027153;28;20145;-83
2023/10/17 11:15:11;;;;;;;7.40;6.95;;;13.10;99.90;;;;;;5048122;28;20060;-82
2023/10/17 11:17:38;;;;;;;8.70;8.18;;;12.90;99.90;;;;;;5012358;28;20052;-84
2023/10/17 11:20:14;;;;;;;10.52;9.95;;;12.90;99.90;;;;;;5007484;28;20060;-85
2023/10/17 11:22:45;;;;;;;8.23;7.75;;;12.90;99.90;;;;;;5009731;28;20049;-85
2023/10/17 11:25:31;;;;;;;5.97;5.63;;;13.20;99.90;;;;;;5032648;28;20049;-85
2023/10/17 11:28:00;;;;;;;11.65;10.98;;;13.10;99.90;;;;;;5029065;28;20047;-84
2023/10/17 11:30:32;;;;;;;12.15;11.45;;;13.40;99.90;;;;;;5045026;28;20064;-85
2023/10/17 11:33:05;;;;;;;13.52;12.80;;;13.30;99.90;;;;;;5028918;28;20041;-86
2023/10/17 11:35:34;;;;;;;12.73;12.02;;;13.10;99.90;;;;;;5049066;28;20047;-84
2023/10/17 11:38:01;;;;;;;11.00;10.38;;;13.10;99.90;;;;;;5026924;28;20055;-85
2023/10/17 11:40:44;;;;;;;11.75;11.07;;;13.20;99.90;;;;;;5028195;28;20044;-85
2023/10/17 11:43:28;;;;;;;12.35;11.68;;;13.00;99.90;;;;;;5031319;28;20151;-85
2023/10/17 11:46:00;;;;;;;11.93;11.23;;;13.00;99.90;;;;;;5030123;28;20083;-86
2023/10/17 11:48:40;;;;;;;6.05;5.68;;;13.30;99.90;;;;;;5054173;28;20115;-85
2023/10/17 11:51:07;;;;;;;9.00;8.45;;;13.90;99.90;;;;;;5032051;28;20060;-90
2023/10/17 11:53:34;;;;;;;13.27;12.52;;;13.90;99.90;;;;;;5013388;28;20519;-91
2023/10/17 11:56:02;;;;;;;12.93;12.20;;;13.50;99.90;;;;;;5009152;28;20057;-89
2023/10/17 11:58:29;;;;;;;13.55;12.80;;;13.50;99.90;;;;;;5017681;28;20173;-88
2023/10/17 12:00:56;;;;;;;15.18;14.38;;;13.30;99.90;;;;;;5012297;28;20049;-87
2023/10/17 12:03:24;;;;;;;10.20;9.60;;;13.10;99.90;;;;;;5015577;28;20516;-86
2023/10/17 12:05:49;;;;;;;11.82;11.13;;;13.50;99.90;;;;;;5027371;28;20049;-85
2023/10/17 12:08:22;;;;;;;9.88;9.30;;;13.40;99.90;;;;;;5052029;28;20063;-84
2023/10/17 12:10:51;;;;;;;10.38;9.75;;;13.50;99.90;;;;;;5020235;28;20044;-87
2023/10/17 12:13:20;;;;;;;13.13;12.38;;;13.70;99.90;;;;;;5035407;28;20052;-85
2023/10/17 12:15:46;;;;;;;12.32;11.65;;;13.40;99.90;;;;;;5028983;28;20519;-85
2023/10/17 12:18:15;;;;;;;12.40;11.70;;;13.20;99.90;;;;;;5032183;28;20052;-87
2023/10/17 12:20:41;;;;;;;9.77;9.20;;;13.00;99.90;;;;;;5033355;28;20053;-84
2023/10/17 12:23:11;;;;;;;6.65;6.28;;;13.40;99.90;;;;;;5032673;28;20140;-86
2023/10/17 12:25:37;;;;;;;8.63;8.10;;;13.60;99.90;;;;;;5045599;28;20045;-86
2023/10/17 12:28:06;;;;;;;10.82;10.18;;;13.90;99.90;;;;;;5036445;28;20508;-86
2023/10/17 12:30:39;;;;;;;10.18;9.57;;;13.90;99.90;;;;;;5027998;28;20171;-86
2023/10/17 12:33:06;;;;;;;9.60;9.02;;;13.90;99.90;;;;;;5029065;28;20056;-84
2023/10/17 12:35:33;;;;;;;9.38;8.82;;;13.40;99.90;;;;;;5030942;28;20060;-85
2023/10/17 12:38:05;;;;;;;8.48;7.95;;;13.40;99.90;;;;;;5031709;28;20045;-86
2023/10/17 12:40:31;;;;;;;7.72;7.22;;;13.10;99.90;;;;;;5025469;28;20063;-90
2023/10/17 12:42:57;;;;;;;7.72;7.22;;;13.20;99.90;;;;;;5028725;28;20036;-81
2023/10/17 12:45:24;;;;;;;8.85;8.25;;;13.40;99.90;;;;;;5064455;28;20060;-83
2023/10/17 12:47:50;;;;;;;9.32;8.73;;;13.40;99.90;;;;;;5028635;28;20237;-85
2023/10/17 12:50:18;;;;;;;7.28;6.80;;;13.50;99.90;;;;;;5036854;28;20448;-86
2023/10/17 12:52:44;;;;;;;8.48;7.95;;;13.90;99.90;;;;;;5038505;28;20072;-86
2023/10/17 12:55:11;;;;;;;7.70;7.22;;;13.80;99.90;;;;;;5029737;28;20089;-86
2023/10/17 12:57:38;;;;;;;7.72;7.25;;;13.90;99.90;;;;;;5034753;28;20079;-84
2023/10/17 13:00:11;;;;;;;7.68;7.20;;;13.70;99.90;;;;;;5037841;28;20436;-84
2023/10/17 13:02:41;;;;;;;8.60;8.05;;;13.60;99.90;;;;;;5059946;28;20076;-86
2023/10/17 13:05:11;;;;;;;7.78;7.28;;;13.40;99.90;;;;;;5069201;28;20131;-87
2023/10/17 13:07:38;;;;;;;5.93;5.57;;;13.60;99.90;;;;;;5036576;28;20387;-85
2023/10/17 13:10:05;;;;;;;5.93;5.55;;;14.00;99.90;;;;;;5031026;28;20110;-86
2023/10/17 13:12:32;;;;;;;6.22;5.82;;;13.70;99.90;;;;;;5038588;28;20040;-87
2023/10/17 13:14:58;;;;;;;5.90;5.50;;;13.50;99.90;;;;;;5031533;28;20041;-88
2023/10/17 13:17:25;;;;;;;5.93;5.53;;;13.60;99.90;;;;;;5030292;28;20087;-88
2023/10/17 13:19:51;;;;;;;6.07;5.68;;;13.40;99.90;;;;;;5030343;28;20494;-85
2023/10/17 13:22:20;;;;;;;6.70;6.30;;;13.40;99.90;;;;;;5027731;28;20061;-87
2023/10/17 13:24:48;;;;;;;5.60;5.20;;;13.80;99.90;;;;;;5026024;28;20053;-87
2023/10/17 13:27:15;;;;;;;5.45;5.10;;;14.00;99.90;;;;;;5027305;28;20073;-85
2023/10/17 13:29:42;;;;;;;6.13;5.72;;;13.40;99.90;;;;;;5032003;28;20048;-88
2023/10/17 13:32:08;;;;;;;5.65;5.25;;;13.70;99.90;;;;;;5026085;28;20630;-86
2023/10/17 13:34:35;;;;;;;5.90;5.50;;;13.70;99.90;;;;;;5030723;28;20178;-86
2023/10/17 13:37:04;;;;;;;6.22;5.82;;;13.60;99.90;;;;;;5030890;28;20044;-87
2023/10/17 13:39:34;;;;;;;6.43;6.03;;;13.60;99.90;;;;;;5027960;28;20574;-86
2023/10/17 13:42:02;;;;;;;5.93;5.53;;;13.60;99.90;;;;;;5039174;28;20037;-85
2023/10/17 13:44:28;;;;;;;7.30;6.82;;;13.50;99.90;;;;;;5032282;28;20144;-86
2023/10/17 13:46:55;;;;;;;5.00;4.70;;;13.30;99.90;;;;;;5032882;28;20041;-87
2023/10/17 13:49:21;;;;;;;6.07;5.68;;;13.40;99.90;;;;;;5031279;28;20048;-85
2023/10/17 13:51:47;;;;;;;5.53;5.15;;;13.40;99.90;;;;;;5029688;28;20041;-84
2023/10/17 13:54:16;;;;;;;8.75;8.25;;;13.50;99.90;;;;;;5038606;28;20048;-85
2023/10/17 13:56:43;;;;;;;4.50;4.22;;;13.30;99.90;;;;;;5067243;28;20049;-87
2023/10/17 13:59:09;;;;;;;7.47;6.97;;;13.30;99.90;;;;;;5009196;28;20122;-85
2023/10/17 14:01:41;;;;;;;3.22;3.03;;;13.10;99.90;;;;;;5072735;28;20041;-86
2023/10/17 14:04:11;;;;;;;3.33;3.13;;;13.50;99.90;;;;;;5036449;28;20564;-83
2023/10/17 14:06:44;;;;;;;6.40;6.00;;;13.50;99.90;;;;;;5013476;28;20055;-88
2023/10/17 14:09:17;;;;;;;3.90;3.70;;;13.50;99.90;;;;;;5031653;28;20148;-86
2023/10/17 14:11:46;;;;;;;3.50;3.30;;;13.40;99.90;;;;;;5028804;28;20071;-86
2023/10/17 14:14:15;;;;;;;4.53;4.22;;;13.20;99.90;;;;;;5032369;28;20478;-86
2023/10/17 14:16:41;;;;;;;3.20;3.00;;;13.20;99.90;;;;;;5036299;28;20132;-86
2023/10/17 14:19:15;;;;;;;3.22;3.03;;;13.40;99.90;;;;;;5029159;28;20466;-85
2023/10/17 14:21:47;;;;;;;3.70;3.50;;;13.50;99.90;;;;;;5030043;28;20049;-86
2023/10/17 14:24:29;;;;;;;3.50;3.30;;;13.40;99.90;;;;;;5028144;28;20060;-86
2023/10/17 14:26:55;;;;;;;2.90;2.70;;;13.50;99.90;;;;;;5025467;28;20044;-83
2023/10/17 14:29:21;;;;;;;3.10;2.90;;;13.50;99.90;;;;;;5062750;28;20048;-85
2023/10/17 14:31:47;;;;;;;3.35;3.15;;;13.50;99.90;;;;;;5025407;28;20045;-86
2023/10/17 14:34:13;;;;;;;3.72;3.53;;;13.20;99.90;;;;;;5031320;28;20075;-85
2023/10/17 14:36:39;;;;;;;2.47;2.35;;;13.10;99.90;;;;;;5031332;28;20398;-85
2023/10/17 14:39:09;;;;;;;3.78;3.58;;;13.20;99.90;;;;;;5028088;28;20045;-83
2023/10/17 14:41:36;;;;;;;3.50;3.30;;;13.00;99.90;;;;;;5002671;28;20048;-85
2023/10/17 14:44:03;;;;;;;2.90;2.70;;;13.20;99.90;;;;;;5023983;28;20052;-86
2023/10/17 14:46:30;;;;;;;2.70;2.55;;;13.30;99.90;;;;;;5027152;28;20051;-84
2023/10/17 14:48:56;;;;;;;3.20;3.00;;;13.20;99.90;;;;;;5031792;28;20045;-83
2023/10/17 14:51:22;;;;;;;3.42;3.22;;;13.30;99.90;;;;;;5017231;28;20044;-85
2023/10/17 14:53:48;;;;;;;3.28;3.08;;;13.10;99.90;;;;;;5032890;28;20040;-84
2023/10/17 14:56:14;;;;;;;2.70;2.55;;;13.10;99.90;;;;;;5025540;28;20105;-86
2023/10/17 14:58:49;;;;;;;3.83;3.63;;;13.10;99.90;;;;;;5016514;28;20044;-84
2023/10/17 15:01:16;;;;;;;3.50;3.30;;;12.90;99.90;;;;;;5024551;28;20052;-83
2023/10/17 15:03:48;;;;;;;3.70;3.50;;;12.60;99.90;;;;;;5061958;28;20636;-84
2023/10/17 15:06:14;;;;;;;5.13;4.82;;;12.70;99.90;;;;;;5024869;28;20044;-85
2023/10/17 15:08:40;;;;;;;6.97;6.50;;;12.40;99.90;;;;;;5025438;28;20517;-84
2023/10/17 15:11:06;;;;;;;5.47;5.10;;;12.40;99.90;;;;;;5025778;28;20041;-83
2023/10/17 15:13:33;;;;;;;3.65;3.45;;;12.40;99.90;;;;;;5023048;28;20041;-84
2023/10/17 15:16:00;;;;;;;4.55;4.25;;;12.40;99.90;;;;;;5059556;28;20120;-84